ENHV/HVG METAR and TAF weather

Enter ICAO airport designator
Station Type Date Time Source
ENHV METAR 2020/07/06 18:50 UTC NOAA

ENHV 061850Z 27010KT 9999 SHRA SCT005 BKN009 08/06 Q0987


Station Type Date Time Source
ENHV Decoded METAR 2020/07/06 18:50 UTC NOAA

Honningsvag / Valan, Norway (ENHV) 71-01N 025-59E 14M
Jul 06, 2020 - 02:50 PM EDT / 2020.07.06 1850 UTC
Wind: from the W (270 degrees) at 12 MPH (10 KT):0
Visibility: greater than 7 mile(s):0
Sky conditions: mostly cloudy
Weather: rain showers
Temperature: 46 F (8 C)
Dew Point: 42 F (6 C)
Relative Humidity: 87%
Pressure (altimeter): 29.15 in. Hg (0987 hPa)
ob: ENHV 061850Z 27010KT 9999 SHRA SCT005 BKN009 08/06 Q0987
cycle: 19

Station Type Date Time Source
ENHV TAF UTC NOAA

Error!

Example: see airport list